Time;durP1;ratioP1;P1;durP2;ratioP2;P2;SDS_P1;SDS_P2;PMS_P1;PMS_P2;Temp;Humidity;BMP_temperature;BMP_pressure;BME280_temperature;BME280_humidity;BME280_pressure;Samples;Min_cycle;Max_cycle;Signal;HPM_P1;HPM_P2
2023/05/12 00:02:08;;;;;;;6.77;4.37;;;12.40;99.90;;;;;;2602584;54;20026;31
2023/05/12 00:04:45;;;;;;;7.43;4.45;;;12.40;99.90;;;;;;2601892;54;20913;31
2023/05/12 00:07:21;;;;;;;9.35;4.70;;;12.30;99.90;;;;;;2606577;47;19982;31
2023/05/12 00:10:01;;;;;;;6.63;4.05;;;12.30;99.90;;;;;;2621835;46;20851;31
2023/05/12 00:12:41;;;;;;;6.65;4.30;;;12.30;99.90;;;;;;2603245;54;20042;31
2023/05/12 00:15:21;;;;;;;10.93;5.25;;;12.30;99.90;;;;;;2626584;39;21174;31
2023/05/12 00:17:59;;;;;;;7.03;4.90;;;12.20;99.90;;;;;;2603353;54;20145;31
2023/05/12 00:20:36;;;;;;;7.30;5.00;;;12.20;99.90;;;;;;2602578;54;20855;31
2023/05/12 00:23:16;;;;;;;7.80;4.60;;;12.10;99.90;;;;;;2621357;46;20030;31
2023/05/12 00:26:01;;;;;;;9.38;5.15;;;12.10;99.90;;;;;;2603253;54;20042;31
2023/05/12 00:31:19;;;;;;;7.93;4.55;;;12.10;99.90;;;;;;2603324;54;20779;31
2023/05/12 00:33:56;;;;;;;12.30;4.35;;;12.10;99.90;;;;;;2603395;54;20066;31
2023/05/12 00:36:33;;;;;;;9.25;4.43;;;12.00;99.90;;;;;;2602473;54;20042;31
2023/05/12 00:39:10;;;;;;;12.25;4.90;;;12.00;99.90;;;;;;2603220;54;21083;31
2023/05/12 00:41:49;;;;;;;6.80;4.15;;;12.00;99.90;;;;;;2603168;54;20857;31
2023/05/12 00:44:27;;;;;;;7.93;4.37;;;11.90;99.90;;;;;;2603050;54;20864;31
2023/05/12 00:47:08;;;;;;;9.73;4.53;;;11.80;99.90;;;;;;2603431;54;20128;31
2023/05/12 00:52:22;;;;;;;9.17;4.77;;;11.90;99.90;;;;;;2603078;54;20022;31
2023/05/12 00:54:59;;;;;;;6.78;4.18;;;11.90;99.90;;;;;;2621318;31;20117;31
2023/05/12 00:57:40;;;;;;;7.82;4.85;;;11.80;99.90;;;;;;2603196;54;20026;31
2023/05/12 01:00:20;;;;;;;7.85;4.78;;;11.80;99.90;;;;;;2603035;54;20049;31
2023/05/12 01:03:00;;;;;;;9.50;4.65;;;11.70;99.90;;;;;;2603138;54;20153;31
2023/05/12 01:05:41;;;;;;;6.05;4.25;;;11.70;99.90;;;;;;2603022;54;20038;31
2023/05/12 01:08:20;;;;;;;7.22;4.60;;;11.70;99.90;;;;;;2603175;54;19950;31
2023/05/12 01:10:56;;;;;;;7.28;4.40;;;11.70;99.90;;;;;;2603186;54;20958;31
2023/05/12 01:13:31;;;;;;;7.65;5.38;;;11.60;99.90;;;;;;2602979;54;20137;31
2023/05/12 01:16:11;;;;;;;7.20;4.35;;;11.60;99.90;;;;;;2602906;54;20023;31
2023/05/12 01:18:52;;;;;;;8.65;4.72;;;11.60;99.90;;;;;;2621534;46;20033;31
2023/05/12 01:21:28;;;;;;;6.35;3.95;;;11.60;99.90;;;;;;2621894;46;20088;31
2023/05/12 01:24:07;;;;;;;7.15;3.95;;;11.50;99.90;;;;;;2681444;31;25206;31
2023/05/12 01:26:50;;;;;;;7.15;4.30;;;11.50;99.90;;;;;;2603049;54;20073;31
2023/05/12 01:32:04;;;;;;;7.10;4.50;;;11.40;99.90;;;;;;2602797;54;20082;31
2023/05/12 01:34:43;;;;;;;6.05;4.07;;;11.40;99.90;;;;;;2603171;54;20962;31
2023/05/12 01:37:20;;;;;;;5.07;3.90;;;11.30;99.90;;;;;;2602320;54;20881;31
2023/05/12 01:39:56;;;;;;;9.57;4.25;;;11.30;99.90;;;;;;2603044;54;20740;31
2023/05/12 01:42:37;;;;;;;5.35;3.85;;;11.30;99.90;;;;;;2621358;46;20694;31
2023/05/12 01:45:13;;;;;;;7.75;4.28;;;11.20;99.90;;;;;;2602903;54;20030;31
2023/05/12 01:47:49;;;;;;;7.95;3.95;;;11.20;99.90;;;;;;2602963;54;20927;31
2023/05/12 01:50:24;;;;;;;7.38;4.55;;;11.20;99.90;;;;;;2602943;54;20161;31
2023/05/12 01:53:06;;;;;;;5.78;4.00;;;11.20;99.90;;;;;;2602834;54;20427;31
2023/05/12 01:55:45;;;;;;;8.65;3.88;;;11.10;99.90;;;;;;2602086;54;20548;31
2023/05/12 01:58:28;;;;;;;7.45;4.05;;;11.10;99.90;;;;;;2601979;54;20026;31
2023/05/12 02:01:06;;;;;;;9.87;4.47;;;11.10;99.90;;;;;;2602881;54;20430;31
2023/05/12 02:03:46;;;;;;;7.80;3.73;;;11.00;99.90;;;;;;2602893;54;20109;31
2023/05/12 02:06:30;;;;;;;12.10;5.35;;;11.00;99.90;;;;;;2639086;31;20230;31
2023/05/12 02:11:39;;;;;;;6.95;4.22;;;10.90;99.90;;;;;;2621337;46;20034;31
2023/05/12 02:14:22;;;;;;;;;;;10.80;99.90;;;;;;2621288;46;20893;31
2023/05/12 02:16:58;;;;;;;6.78;4.22;;;10.80;99.90;;;;;;2607594;39;21316;31
2023/05/12 02:19:36;;;;;;;8.93;4.40;;;10.80;99.90;;;;;;2618382;39;21425;31
2023/05/12 02:22:14;;;;;;;5.97;4.47;;;10.70;99.90;;;;;;2602020;54;20101;31
2023/05/12 02:24:51;;;;;;;8.15;4.05;;;10.70;99.90;;;;;;2603004;54;20454;31
2023/05/12 02:27:27;;;;;;;7.77;4.40;;;10.70;99.90;;;;;;2602884;54;20838;31
2023/05/12 02:30:05;;;;;;;14.73;5.32;;;10.60;99.90;;;;;;2602637;54;20549;31
2023/05/12 02:32:43;;;;;;;10.40;4.57;;;10.60;99.90;;;;;;2602714;54;20050;31
2023/05/12 02:35:20;;;;;;;8.52;4.25;;;10.60;99.90;;;;;;2611979;46;20034;31
2023/05/12 02:37:58;;;;;;;8.85;4.70;;;10.50;99.90;;;;;;2621245;46;20061;31
2023/05/12 02:40:34;;;;;;;7.05;4.10;;;10.50;99.90;;;;;;2603101;54;20130;31
2023/05/12 02:43:10;;;;;;;6.38;4.43;;;10.50;99.90;;;;;;2602561;54;20140;31
2023/05/12 02:45:49;;;;;;;;;;;10.50;99.90;;;;;;2621550;46;20921;31
2023/05/12 02:48:28;;;;;;;7.70;4.45;;;10.40;99.90;;;;;;2602723;54;20766;31
2023/05/12 02:51:04;;;;;;;7.05;4.35;;;10.40;99.90;;;;;;2602797;54;20050;31
2023/05/12 02:53:41;;;;;;;8.32;4.22;;;10.40;99.90;;;;;;2621344;46;21217;31
2023/05/12 02:56:17;;;;;;;7.85;4.10;;;10.30;99.90;;;;;;2608071;39;20365;31
2023/05/12 02:58:54;;;;;;;5.83;3.50;;;10.30;99.90;;;;;;2602772;54;20881;31
2023/05/12 03:01:30;;;;;;;8.30;4.30;;;10.30;99.90;;;;;;2602455;54;21727;31
2023/05/12 03:04:10;;;;;;;9.43;4.47;;;10.20;99.90;;;;;;2602344;54;20019;31
2023/05/12 03:06:47;;;;;;;7.50;4.63;;;10.20;99.90;;;;;;2602585;54;21394;31
2023/05/12 03:09:25;;;;;;;7.25;4.35;;;10.20;99.90;;;;;;2646720;39;20353;31
2023/05/12 03:12:01;;;;;;;6.57;4.28;;;10.20;99.90;;;;;;2602813;54;20038;31
2023/05/12 03:14:38;;;;;;;7.88;4.55;;;10.10;99.90;;;;;;2602712;54;20038;31
2023/05/12 03:17:15;;;;;;;7.65;4.13;;;10.20;99.90;;;;;;2602666;54;20042;31
2023/05/12 03:19:56;;;;;;;7.43;4.45;;;10.10;99.90;;;;;;2602759;54;20882;31
2023/05/12 03:22:34;;;;;;;6.88;4.45;;;10.10;99.90;;;;;;2602634;54;20027;31
2023/05/12 03:27:45;;;;;;;7.72;4.45;;;10.00;99.90;;;;;;2602639;54;20073;31
2023/05/12 03:30:22;;;;;;;9.98;4.57;;;10.00;99.90;;;;;;2602554;54;20026;31
2023/05/12 03:33:02;;;;;;;6.95;4.30;;;10.00;99.90;;;;;;2602634;54;20097;31
2023/05/12 03:35:38;;;;;;;8.80;5.10;;;9.90;99.90;;;;;;2602597;54;20048;31
2023/05/12 03:38:21;;;;;;;8.73;4.45;;;10.00;99.90;;;;;;2621227;47;20857;31
2023/05/12 03:41:06;;;;;;;7.13;4.45;;;10.00;99.90;;;;;;2621485;47;19970;31
2023/05/12 03:43:43;;;;;;;7.85;4.70;;;10.10;99.90;;;;;;2603380;54;20022;31
2023/05/12 03:46:18;;;;;;;;;;;10.10;99.90;;;;;;2603696;54;20023;31
2023/05/12 03:48:58;;;;;;;9.05;4.80;;;10.20;99.90;;;;;;2603372;54;20378;31
2023/05/12 03:51:32;;;;;;;6.35;4.30;;;10.20;99.90;;;;;;2603549;54;20097;31
2023/05/12 03:54:11;;;;;;;;;;;10.20;99.90;;;;;;2603705;54;20026;31
2023/05/12 03:56:50;;;;;;;6.75;4.45;;;10.20;99.90;;;;;;2603359;54;21476;31
2023/05/12 03:59:28;;;;;;;9.35;4.88;;;10.20;99.90;;;;;;2603380;54;20022;31
2023/05/12 04:02:06;;;;;;;8.10;4.30;;;10.20;99.90;;;;;;2603312;54;20035;31
2023/05/12 04:04:41;;;;;;;7.50;4.50;;;10.20;99.90;;;;;;2621435;46;20104;31
2023/05/12 04:07:16;;;;;;;10.40;4.50;;;10.20;99.90;;;;;;2603274;54;20859;31
2023/05/12 04:09:55;;;;;;;7.50;5.30;;;10.30;99.90;;;;;;2603231;54;20368;31
2023/05/12 04:12:31;;;;;;;5.67;4.17;;;10.40;99.90;;;;;;2603340;54;20057;31
2023/05/12 04:15:09;;;;;;;7.20;4.63;;;10.50;99.90;;;;;;2603230;54;20889;31
2023/05/12 04:17:45;;;;;;;9.52;4.15;;;10.60;99.90;;;;;;2603148;54;20050;31
2023/05/12 04:20:21;;;;;;;;;;;10.70;99.90;;;;;;2603541;54;20027;31
2023/05/12 04:22:59;;;;;;;10.23;5.00;;;10.60;99.90;;;;;;2603525;54;20669;31
2023/05/12 04:25:41;;;;;;;7.05;4.75;;;10.80;99.90;;;;;;2603215;54;20054;31
2023/05/12 04:28:25;;;;;;;6.20;4.75;;;10.90;99.90;;;;;;2603360;54;20027;31
2023/05/12 04:31:05;;;;;;;10.45;4.40;;;11.20;99.90;;;;;;2603319;54;20093;31
2023/05/12 04:33:43;;;;;;;7.43;4.78;;;11.30;99.90;;;;;;2621619;46;21252;31
2023/05/12 04:36:24;;;;;;;7.72;4.38;;;11.30;99.90;;;;;;2621693;46;19942;31
2023/05/12 04:39:04;;;;;;;7.93;4.80;;;11.30;99.90;;;;;;2621306;46;20748;31
2023/05/12 04:41:43;;;;;;;7.17;4.47;;;11.50;99.90;;;;;;2603280;54;20807;31
2023/05/12 04:44:20;;;;;;;7.40;4.80;;;11.80;99.90;;;;;;2603290;54;20258;31
2023/05/12 04:46:58;;;;;;;7.22;4.68;;;12.00;99.90;;;;;;2603168;54;20885;31
2023/05/12 04:49:35;;;;;;;7.50;4.30;;;12.20;99.90;;;;;;2603146;54;20034;31
2023/05/12 04:52:10;;;;;;;;;;;12.50;99.90;;;;;;2603547;54;20047;31
2023/05/12 04:54:54;;;;;;;7.00;4.68;;;12.80;99.90;;;;;;2603155;54;20344;31
2023/05/12 04:57:35;;;;;;;8.70;5.10;;;13.10;99.90;;;;;;2602326;54;20896;31
2023/05/12 05:00:16;;;;;;;12.35;4.95;;;13.40;99.90;;;;;;2621762;46;20029;31
2023/05/12 05:02:58;;;;;;;17.35;4.70;;;13.60;99.90;;;;;;2606210;46;20045;31
2023/05/12 05:05:33;;;;;;;11.85;5.05;;;13.90;99.90;;;;;;2603266;54;20890;31
2023/05/12 05:08:10;;;;;;;11.63;4.30;;;14.00;99.90;;;;;;2603195;54;20920;31
2023/05/12 05:10:46;;;;;;;9.65;4.85;;;14.30;99.90;;;;;;2603134;54;20048;31
2023/05/12 05:13:29;;;;;;;10.30;4.75;;;14.30;99.90;;;;;;2603251;54;20052;31
2023/05/12 05:16:10;;;;;;;14.07;5.80;;;14.40;99.90;;;;;;2603070;54;20807;31
2023/05/12 05:18:48;;;;;;;8.60;5.00;;;14.20;99.90;;;;;;2621934;46;20026;31
2023/05/12 05:21:25;;;;;;;;;;;14.20;99.90;;;;;;2621830;46;20029;31
2023/05/12 05:24:00;;;;;;;13.20;5.15;;;14.50;99.90;;;;;;2603127;54;20359;31
2023/05/12 05:26:38;;;;;;;11.70;5.13;;;14.70;99.90;;;;;;2603058;54;20128;31
2023/05/12 05:29:13;;;;;;;9.48;4.68;;;14.90;99.90;;;;;;2603036;54;20042;31
2023/05/12 05:31:54;;;;;;;8.50;4.22;;;15.20;99.90;;;;;;2603113;54;20740;31
2023/05/12 05:34:33;;;;;;;10.45;4.95;;;15.40;99.90;;;;;;2603261;54;20046;31
2023/05/12 05:37:11;;;;;;;55.90;7.68;;;15.60;99.90;;;;;;2621218;46;20057;31
2023/05/12 05:39:50;;;;;;;5.50;4.60;;;15.80;99.90;;;;;;2618837;39;21394;31
2023/05/12 05:42:28;;;;;;;8.50;4.40;;;16.00;99.90;;;;;;2603103;54;21023;31
2023/05/12 05:45:06;;;;;;;9.23;4.85;;;16.20;99.90;;;;;;2603050;54;20035;31
2023/05/12 05:47:48;;;;;;;7.45;4.25;;;16.40;99.90;;;;;;2602836;54;20049;31
2023/05/12 05:50:28;;;;;;;7.20;3.63;;;16.40;99.90;;;;;;2607362;39;20321;31
2023/05/12 05:53:07;;;;;;;11.20;4.50;;;16.70;99.90;;;;;;2619809;46;20330;31
2023/05/12 05:55:50;;;;;;;8.38;5.03;;;16.90;99.90;;;;;;2621423;46;20057;31
2023/05/12 05:58:28;;;;;;;9.03;5.07;;;17.10;99.90;;;;;;2603242;54;20105;31
2023/05/12 06:01:08;;;;;;;7.35;4.22;;;17.20;99.90;;;;;;2608724;46;20861;31
2023/05/12 06:03:47;;;;;;;9.27;4.68;;;17.30;99.90;;;;;;2602788;54;20068;31
2023/05/12 06:06:26;;;;;;;7.10;4.20;;;17.50;99.90;;;;;;2603139;54;20026;31
2023/05/12 06:09:04;;;;;;;10.13;3.53;;;17.60;99.90;;;;;;2603045;54;20074;31
2023/05/12 06:11:42;;;;;;;6.78;3.85;;;17.70;99.90;;;;;;2621657;46;20060;31
2023/05/12 06:14:20;;;;;;;7.70;4.07;;;17.80;99.90;;;;;;2621651;46;20761;31
2023/05/12 06:16:57;;;;;;;7.13;4.20;;;17.90;99.90;;;;;;2646955;39;20330;31
2023/05/12 06:19:38;;;;;;;8.20;4.40;;;17.90;99.90;;;;;;2602924;54;20991;31
2023/05/12 06:22:15;;;;;;;8.95;4.50;;;18.10;99.90;;;;;;2603223;54;20125;31
2023/05/12 06:24:53;;;;;;;6.80;4.17;;;18.20;99.90;;;;;;2602832;54;20088;31
2023/05/12 06:27:29;;;;;;;9.57;3.70;;;18.30;99.90;;;;;;2608185;39;20155;31
2023/05/12 06:30:11;;;;;;;9.05;3.90;;;18.30;99.80;;;;;;2618715;39;21428;31
2023/05/12 06:32:50;;;;;;;6.00;4.00;;;18.40;99.80;;;;;;2621456;46;20038;31
2023/05/12 06:35:30;;;;;;;6.95;4.40;;;18.60;99.90;;;;;;2602931;54;20908;31
2023/05/12 06:38:08;;;;;;;12.03;3.90;;;18.90;99.60;;;;;;2602981;54;20886;31
2023/05/12 06:40:44;;;;;;;6.57;4.05;;;19.00;98.50;;;;;;2603023;54;20053;31
2023/05/12 06:43:22;;;;;;;9.45;4.20;;;19.10;99.60;;;;;;2602765;54;20041;31
2023/05/12 06:46:05;;;;;;;8.45;4.22;;;19.10;98.90;;;;;;2602939;54;20038;31
2023/05/12 06:48:43;;;;;;;7.78;3.78;;;19.20;99.70;;;;;;2602850;54;20808;31
2023/05/12 06:51:22;;;;;;;8.93;4.18;;;19.30;98.30;;;;;;2602956;54;20041;31
2023/05/12 06:54:00;;;;;;;6.63;3.50;;;19.40;99.20;;;;;;2621248;46;19942;31
2023/05/12 06:56:38;;;;;;;6.85;3.90;;;19.40;97.90;;;;;;2621349;46;20093;31
2023/05/12 06:59:16;;;;;;;5.43;3.90;;;19.60;97.40;;;;;;2602783;54;20130;31
2023/05/12 07:02:03;;;;;;;6.93;3.97;;;19.70;97.50;;;;;;2602789;54;20482;31
2023/05/12 07:04:41;;;;;;;6.80;3.80;;;19.90;97.10;;;;;;2602901;54;20052;31
2023/05/12 07:07:23;;;;;;;6.70;3.85;;;20.00;96.50;;;;;;2602812;54;20900;31
2023/05/12 07:15:19;;;;;;;16.48;3.97;;;20.50;95.70;;;;;;2621151;46;20049;31
2023/05/12 07:17:58;;;;;;;6.57;3.50;;;20.60;95.30;;;;;;2602757;54;20549;31
2023/05/12 07:21:06;;;;;;;5.18;3.60;;;20.60;94.90;;;;;;2602844;54;20928;31
2023/05/12 07:23:54;;;;;;;7.93;3.80;;;20.70;94.80;;;;;;2620957;47;20810;31
2023/05/12 07:26:40;;;;;;;7.60;3.90;;;20.90;94.60;;;;;;2621282;47;20030;31
2023/05/12 07:29:24;;;;;;;6.63;3.45;;;21.00;94.10;;;;;;2621042;47;20922;31
2023/05/12 07:32:01;;;;;;;9.70;4.10;;;21.20;94.00;;;;;;2602616;54;20081;31
2023/05/12 07:37:52;;;;;;;5.90;3.90;;;21.50;93.70;;;;;;2618016;47;20026;31
2023/05/12 07:46:20;;;;;;;;;;;22.00;93.40;;;;;;2602551;54;20109;31
2023/05/12 07:49:00;;;;;;;6.55;3.50;;;22.00;92.20;;;;;;2620536;47;20013;31
2023/05/12 07:51:52;;;;;;;10.65;3.75;;;22.20;91.80;;;;;;2602632;54;20026;31
2023/05/12 08:44:04;;;;;;;8.70;3.35;;;24.50;85.30;;;;;;2602119;54;20038;31
2023/05/12 08:46:43;;;;;;;7.68;3.15;;;24.70;85.40;;;;;;2603379;54;20034;31
2023/05/12 08:49:24;;;;;;;4.95;2.63;;;24.90;86.00;;;;;;2603017;54;20030;31
2023/05/12 08:52:04;;;;;;;6.18;2.60;;;25.00;83.80;;;;;;2602585;54;20851;31
2023/05/12 08:54:42;;;;;;;4.78;2.92;;;24.80;81.60;;;;;;2603235;54;20900;31
2023/05/12 08:57:29;;;;;;;6.45;2.92;;;24.70;81.50;;;;;;2621660;46;20756;31
2023/05/12 09:00:24;;;;;;;4.15;3.20;;;24.50;82.90;;;;;;2603331;54;20026;31
2023/05/12 09:03:06;;;;;;;7.80;3.63;;;24.40;82.90;;;;;;2621218;46;20872;31
2023/05/12 09:05:45;;;;;;;12.73;3.25;;;24.60;83.40;;;;;;2602311;54;20026;31
2023/05/12 09:08:22;;;;;;;5.95;2.97;;;24.90;83.20;;;;;;2603043;54;20970;31
2023/05/12 09:11:01;;;;;;;6.38;3.15;;;25.00;82.80;;;;;;2602612;54;20921;31
2023/05/12 09:13:44;;;;;;;4.80;2.72;;;25.10;82.10;;;;;;2602512;54;20803;31
2023/05/12 09:16:24;;;;;;;4.00;2.58;;;25.20;81.30;;;;;;2603362;54;20053;31
2023/05/12 09:19:03;;;;;;;5.68;2.67;;;25.40;82.90;;;;;;2621102;46;20445;31
2023/05/12 09:21:44;;;;;;;7.55;2.97;;;25.20;80.70;;;;;;2602076;54;20786;31
2023/05/12 09:24:35;;;;;;;6.47;2.77;;;25.30;81.00;;;;;;2602431;54;20085;31
2023/05/12 09:27:12;;;;;;;9.05;3.20;;;25.40;79.80;;;;;;2621740;46;20059;31
2023/05/12 09:29:50;;;;;;;5.15;2.38;;;25.40;79.50;;;;;;2603025;54;20887;31
2023/05/12 09:32:34;;;;;;;4.93;2.63;;;25.40;79.60;;;;;;2602739;54;20154;31
2023/05/12 09:35:15;;;;;;;10.18;2.67;;;25.40;80.40;;;;;;2602448;54;20064;31
2023/05/12 09:37:53;;;;;;;4.35;2.22;;;25.40;78.60;;;;;;2602913;54;20736;31
2023/05/12 09:43:09;;;;;;;5.90;2.70;;;25.20;76.10;;;;;;2602894;54;20030;31
2023/05/12 09:45:49;;;;;;;9.20;2.85;;;25.20;77.50;;;;;;2621383;46;20034;31
2023/05/12 09:48:29;;;;;;;3.88;1.92;;;25.10;80.20;;;;;;2603113;54;20046;31
2023/05/12 09:51:04;;;;;;;4.05;2.40;;;25.30;79.00;;;;;;2603078;54;20065;31
2023/05/12 09:53:46;;;;;;;5.00;2.42;;;25.40;78.00;;;;;;2603153;54;20176;31
2023/05/12 09:56:24;;;;;;;4.30;2.40;;;25.20;76.70;;;;;;2621677;46;20043;31
2023/05/12 09:59:05;;;;;;;5.77;2.20;;;25.20;77.30;;;;;;2603142;54;20030;31
2023/05/12 10:01:41;;;;;;;6.78;1.63;;;25.10;76.80;;;;;;2621386;46;20067;31
2023/05/12 10:04:27;;;;;;;4.65;2.15;;;25.10;76.70;;;;;;2602838;54;20832;31
2023/05/12 10:07:03;;;;;;;4.88;1.75;;;25.20;75.60;;;;;;2603070;54;20046;31
2023/05/12 10:09:47;;;;;;;4.50;2.23;;;25.10;75.50;;;;;;2602831;54;20026;31
2023/05/12 10:12:26;;;;;;;;;;;25.10;76.20;;;;;;2701549;39;21488;31
2023/05/12 11:21:29;;;;;;;;;;;;;;;;;;;;;
2023/05/12 11:27:48;;;;;;;4.77;1.70;;;24.40;71.20;;;;;;2602711;54;20031;31
2023/05/12 11:49:27;;;;;;;3.28;2.13;;;24.00;73.90;;;;;;2618953;39;20290;31
2023/05/12 12:04:19;;;;;;;4.32;1.55;;;23.70;72.00;;;;;;2611452;54;20049;31
2023/05/12 12:13:15;;;;;;;3.40;1.77;;;23.60;72.70;;;;;;2610725;54;20082;31
2023/05/12 13:21:49;;;;;;;3.57;0.93;;;22.40;66.30;;;;;;2627771;39;20427;31
2023/05/12 13:24:28;;;;;;;4.93;1.00;;;22.40;67.00;;;;;;2603516;54;20846;31
2023/05/12 13:27:07;;;;;;;4.38;1.20;;;22.30;67.40;;;;;;2621406;46;20026;31
2023/05/12 13:29:46;;;;;;;2.75;1.23;;;22.20;67.10;;;;;;2602316;54;20927;31
2023/05/12 13:32:28;;;;;;;8.20;1.30;;;22.20;66.30;;;;;;2622756;39;22229;31
2023/05/12 13:35:04;;;;;;;2.65;1.30;;;22.20;66.90;;;;;;2602449;54;20089;31
2023/05/12 13:37:43;;;;;;;;;;;22.20;68.10;;;;;;2602565;54;20461;31
2023/05/12 13:40:28;;;;;;;5.30;1.40;;;22.20;69.00;;;;;;2603317;54;19946;31
2023/05/12 13:43:06;;;;;;;2.50;1.47;;;22.20;69.70;;;;;;2603350;54;20837;31
2023/05/12 13:45:44;;;;;;;5.65;1.50;;;22.20;68.80;;;;;;2621730;46;20044;31
2023/05/12 13:48:23;;;;;;;4.70;1.03;;;22.20;69.30;;;;;;2602353;54;20902;31
2023/05/12 13:50:59;;;;;;;4.88;1.50;;;22.20;69.50;;;;;;2602498;54;20062;31
2023/05/12 13:53:41;;;;;;;10.32;2.80;;;22.20;69.10;;;;;;2603319;54;20885;31
2023/05/12 13:56:26;;;;;;;3.95;1.35;;;22.10;67.90;;;;;;2603182;54;20908;31
2023/05/12 13:59:02;;;;;;;2.13;1.30;;;22.10;67.60;;;;;;2603151;54;20057;31
2023/05/12 14:01:42;;;;;;;4.30;1.00;;;22.10;67.50;;;;;;2603182;54;20889;31
2023/05/12 14:06:56;;;;;;;;;;;22.20;67.40;;;;;;2621721;46;20023;31
2023/05/12 14:09:40;;;;;;;1.40;0.80;;;22.30;66.50;;;;;;2602553;54;19950;31
2023/05/12 14:12:23;;;;;;;4.22;1.25;;;22.30;67.00;;;;;;2602107;54;21547;31
2023/05/12 14:14:58;;;;;;;2.35;1.25;;;22.40;67.50;;;;;;2603105;54;20030;31
2023/05/12 14:17:58;;;;;;;2.50;1.27;;;22.50;67.90;;;;;;2602977;54;20929;31
2023/05/12 14:20:35;;;;;;;4.15;1.00;;;22.50;68.60;;;;;;2603102;54;19941;31
2023/05/12 14:23:10;;;;;;;3.50;1.42;;;22.50;69.00;;;;;;2621650;46;20085;31
2023/05/12 14:25:52;;;;;;;4.07;1.10;;;22.50;69.50;;;;;;2602728;54;20034;31
2023/05/12 14:28:30;;;;;;;3.05;1.33;;;22.50;68.50;;;;;;2602150;54;20305;31
2023/05/12 14:31:07;;;;;;;3.08;1.17;;;22.50;68.40;;;;;;2602369;54;20030;31
2023/05/12 14:33:43;;;;;;;4.20;1.50;;;22.50;67.60;;;;;;2602404;54;20077;31
2023/05/12 14:36:20;;;;;;;6.60;1.30;;;22.50;68.40;;;;;;2621549;46;21153;31
2023/05/12 14:38:55;;;;;;;3.00;1.40;;;22.40;68.30;;;;;;2602837;54;20109;31
2023/05/12 14:41:36;;;;;;;2.90;1.10;;;22.30;68.60;;;;;;2602748;54;20883;31
2023/05/12 14:44:13;;;;;;;2.55;1.20;;;22.40;67.90;;;;;;2603080;54;20023;31
2023/05/12 14:46:51;;;;;;;5.00;1.45;;;22.40;68.30;;;;;;2621327;46;20093;31
2023/05/12 14:49:27;;;;;;;3.55;1.20;;;22.30;67.30;;;;;;2602966;54;19946;31
2023/05/12 14:52:10;;;;;;;3.80;1.75;;;22.20;68.70;;;;;;2602898;54;20034;31
2023/05/12 14:54:46;;;;;;;5.80;1.20;;;22.20;68.20;;;;;;2602913;54;20026;31
2023/05/12 14:57:26;;;;;;;5.00;1.38;;;22.20;69.90;;;;;;2602826;54;20029;31
2023/05/12 15:00:06;;;;;;;2.50;1.27;;;22.20;68.50;;;;;;2602683;54;20030;31
2023/05/12 15:02:47;;;;;;;3.67;1.30;;;22.10;67.60;;;;;;2602224;54;20038;31
2023/05/12 15:11:46;;;;;;;5.00;1.23;;;22.20;67.60;;;;;;2620959;46;20034;31
2023/05/12 15:14:30;;;;;;;3.55;1.25;;;22.20;68.40;;;;;;2618011;39;21304;31
2023/05/12 15:17:10;;;;;;;3.73;1.40;;;22.10;69.20;;;;;;2602867;54;20066;31
2023/05/12 15:19:46;;;;;;;4.10;1.33;;;22.00;70.30;;;;;;2602820;54;20030;31
2023/05/12 15:22:22;;;;;;;6.25;1.40;;;21.90;70.50;;;;;;2618649;39;21349;31
2023/05/12 15:25:04;;;;;;;2.88;1.60;;;21.80;71.60;;;;;;2602670;54;20224;31
2023/05/12 15:27:44;;;;;;;4.97;1.45;;;21.70;71.80;;;;;;2620795;47;20874;31
2023/05/12 15:30:31;;;;;;;4.18;1.67;;;21.70;72.30;;;;;;2602993;54;20038;31
2023/05/12 15:33:18;;;;;;;3.45;1.30;;;21.60;72.20;;;;;;2628861;39;21433;31
2023/05/12 15:35:57;;;;;;;5.22;1.52;;;21.60;73.10;;;;;;2603282;54;20027;31
2023/05/12 15:38:48;;;;;;;4.80;1.55;;;21.60;72.70;;;;;;2610534;46;22261;31
2023/05/12 15:41:34;;;;;;;3.72;1.02;;;21.60;72.60;;;;;;2603547;54;20033;31
2023/05/12 15:44:10;;;;;;;6.15;2.00;;;21.60;72.00;;;;;;2621992;46;20031;31
2023/05/12 15:46:55;;;;;;;5.35;1.60;;;21.60;72.70;;;;;;2603597;54;20043;31
2023/05/12 15:49:31;;;;;;;9.17;1.93;;;21.70;72.70;;;;;;2622248;46;20109;31
2023/05/12 15:52:10;;;;;;;2.47;1.10;;;21.70;73.10;;;;;;2603737;54;20031;31
2023/05/12 15:54:46;;;;;;;3.33;1.23;;;21.80;73.50;;;;;;2621989;46;20922;31
2023/05/12 16:00:31;;;;;;;5.47;2.08;;;21.90;71.60;;;;;;2603481;54;20898;31
2023/05/12 16:06:08;;;;;;;6.63;1.83;;;21.90;72.00;;;;;;2602623;54;20030;31
2023/05/12 16:08:52;;;;;;;5.13;1.52;;;21.90;72.30;;;;;;2619151;39;21510;31
2023/05/12 16:11:30;;;;;;;5.78;2.03;;;21.90;72.90;;;;;;2602773;54;21062;31
2023/05/12 16:14:07;;;;;;;2.42;1.45;;;21.90;72.10;;;;;;2602409;54;20041;31
2023/05/12 16:16:47;;;;;;;5.55;1.80;;;21.80;73.10;;;;;;2602635;54;20049;31
2023/05/12 16:19:29;;;;;;;7.18;1.50;;;21.70;72.60;;;;;;2609094;39;21396;31
2023/05/12 16:22:16;;;;;;;4.47;1.60;;;21.50;71.90;;;;;;2621986;46;20867;31
2023/05/12 16:24:53;;;;;;;6.20;1.83;;;21.40;71.90;;;;;;2622108;46;20037;31
2023/05/12 16:45:49;;;;;;;3.10;1.60;;;21.00;73.00;;;;;;2602514;54;20034;31
2023/05/12 16:48:42;;;;;;;3.83;1.60;;;20.90;73.10;;;;;;2601892;54;20317;31
2023/05/12 16:51:35;;;;;;;6.82;1.60;;;20.90;73.40;;;;;;2603017;54;20029;31
2023/05/12 16:54:16;;;;;;;6.05;1.75;;;20.70;72.60;;;;;;2646111;39;20321;31
2023/05/12 16:56:55;;;;;;;2.88;1.40;;;20.70;72.20;;;;;;2621277;46;20961;31
2023/05/12 16:59:37;;;;;;;5.15;1.63;;;20.70;72.20;;;;;;2603459;54;20644;31
2023/05/12 17:02:16;;;;;;;6.18;1.95;;;20.60;72.60;;;;;;2603502;54;20022;31
2023/05/12 17:04:56;;;;;;;5.38;1.52;;;20.60;73.40;;;;;;2603245;54;20026;31
2023/05/12 17:07:36;;;;;;;5.18;2.10;;;20.50;73.60;;;;;;2607781;39;21412;31
2023/05/12 17:10:13;;;;;;;7.20;2.15;;;20.50;73.70;;;;;;2603142;54;20879;31
2023/05/12 17:12:51;;;;;;;6.87;1.93;;;20.40;73.50;;;;;;2603152;54;20035;31
2023/05/12 17:15:28;;;;;;;5.25;2.13;;;20.30;74.10;;;;;;2603039;54;21198;31
2023/05/12 17:18:07;;;;;;;4.72;1.50;;;20.30;73.80;;;;;;2603151;54;20082;31
2023/05/12 17:20:53;;;;;;;9.85;1.90;;;20.20;73.20;;;;;;2602843;54;20050;31
2023/05/12 17:23:32;;;;;;;4.50;2.07;;;20.10;73.70;;;;;;2621661;46;20026;31
2023/05/12 17:26:14;;;;;;;3.20;1.90;;;20.10;73.70;;;;;;2620992;46;20111;31
2023/05/12 17:28:53;;;;;;;6.17;1.70;;;20.10;74.20;;;;;;2611143;46;20089;31
2023/05/12 17:31:36;;;;;;;4.40;1.33;;;20.00;74.60;;;;;;2612294;46;20919;31
2023/05/12 17:34:19;;;;;;;5.50;1.80;;;19.90;74.60;;;;;;2602413;54;20927;31
2023/05/12 17:40:03;;;;;;;6.22;1.70;;;19.80;74.30;;;;;;2602231;54;20038;31
2023/05/12 17:42:45;;;;;;;5.97;1.73;;;19.70;73.80;;;;;;2602439;54;20022;31
2023/05/12 17:45:29;;;;;;;4.70;1.88;;;19.70;73.40;;;;;;2602433;54;20854;31
2023/05/12 17:48:14;;;;;;;4.47;1.67;;;19.60;73.50;;;;;;2602432;54;20916;31
2023/05/12 17:57:36;;;;;;;9.20;2.50;;;19.40;73.70;;;;;;2602409;54;20034;31
2023/05/12 18:03:36;;;;;;;5.47;2.08;;;19.20;73.80;;;;;;2602508;54;20046;31
2023/05/12 18:06:14;;;;;;;5.75;2.05;;;19.10;74.10;;;;;;2602116;54;20768;31
2023/05/12 18:08:52;;;;;;;3.60;1.90;;;19.00;74.30;;;;;;2602322;54;20093;31
2023/05/12 18:11:30;;;;;;;6.30;1.95;;;18.90;74.20;;;;;;2621197;46;20954;31
2023/05/12 18:14:07;;;;;;;7.57;1.80;;;18.90;74.40;;;;;;2621131;46;20788;31
2023/05/12 18:16:56;;;;;;;3.55;1.50;;;18.90;74.60;;;;;;2603050;54;20023;31
2023/05/12 18:19:36;;;;;;;6.23;2.07;;;18.80;74.60;;;;;;2603105;54;20101;31
2023/05/12 18:22:13;;;;;;;5.10;1.65;;;18.70;75.00;;;;;;2621487;46;20060;31
2023/05/12 18:24:49;;;;;;;4.40;1.90;;;18.60;75.00;;;;;;2621744;46;20030;31
2023/05/12 18:27:26;;;;;;;7.50;1.80;;;18.60;75.10;;;;;;2602696;54;20113;31
2023/05/12 18:30:05;;;;;;;5.30;1.70;;;18.50;75.40;;;;;;2608232;39;21307;31
2023/05/12 18:32:42;;;;;;;4.82;2.10;;;18.40;75.40;;;;;;2602052;54;20250;31
2023/05/12 18:35:27;;;;;;;6.88;3.30;;;18.30;75.30;;;;;;2603063;54;20775;31
2023/05/12 18:38:07;;;;;;;7.07;2.53;;;18.20;75.50;;;;;;2621422;46;20124;31
2023/05/12 18:40:42;;;;;;;6.10;2.10;;;18.10;75.80;;;;;;2602847;54;20042;31
2023/05/12 18:43:17;;;;;;;4.75;1.95;;;18.10;76.10;;;;;;2621396;46;20034;31
2023/05/12 18:45:52;;;;;;;4.90;2.15;;;18.10;76.30;;;;;;2602676;54;20046;31
2023/05/12 18:48:29;;;;;;;4.85;1.80;;;18.00;76.50;;;;;;2718100;31;20457;31
2023/05/12 18:51:06;;;;;;;5.97;2.47;;;17.90;76.60;;;;;;2602937;54;20028;31
2023/05/12 18:53:41;;;;;;;7.23;2.20;;;17.80;77.10;;;;;;2602897;54;20106;31
2023/05/12 18:56:16;;;;;;;5.82;1.95;;;17.80;77.30;;;;;;2603124;54;20042;31
2023/05/12 18:58:52;;;;;;;5.83;2.10;;;17.70;77.50;;;;;;2621307;46;20030;31
2023/05/12 19:01:27;;;;;;;3.08;2.10;;;17.70;77.80;;;;;;2602679;54;20268;31
2023/05/12 19:04:03;;;;;;;6.45;2.20;;;17.70;78.00;;;;;;2602581;54;20116;31